Time;durP1;ratioP1;P1;durP2;ratioP2;P2;SDS_P1;SDS_P2;PMS_P1;PMS_P2;Temp;Humidity;BMP_temperature;BMP_pressure;BME280_temperature;BME280_humidity;BME280_pressure;Samples;Min_cycle;Max_cycle;Signal;HPM_P1;HPM_P2
2023/12/27 00:01:50;;;;;;;0.00;0.00;;;7.90;99.90;;;;;;5051577;28;20173;-68
2023/12/27 00:04:15;;;;;;;0.00;0.00;;;7.90;99.90;;;;;;5052011;28;20260;-68
2023/12/27 00:06:41;;;;;;;0.00;0.00;;;7.90;99.90;;;;;;5051849;28;20273;-67
2023/12/27 00:09:06;;;;;;;0.00;0.00;;;7.90;99.90;;;;;;5051868;28;20177;-69
2023/12/27 00:11:32;;;;;;;0.00;0.00;;;7.90;99.90;;;;;;5051702;28;20173;-69
2023/12/27 00:13:58;;;;;;;0.00;0.00;;;7.90;99.90;;;;;;5051732;28;20182;-69
2023/12/27 00:16:23;;;;;;;0.00;0.00;;;7.80;99.90;;;;;;5051576;28;20723;-68
2023/12/27 00:18:49;;;;;;;0.00;0.00;;;7.80;99.90;;;;;;5051503;28;20180;-69
2023/12/27 00:21:15;;;;;;;0.00;0.00;;;7.80;99.90;;;;;;5051579;28;20188;-69
2023/12/27 00:23:40;;;;;;;0.00;0.00;;;7.80;99.90;;;;;;5051527;28;20192;-68
2023/12/27 00:26:06;;;;;;;0.00;0.00;;;7.80;99.90;;;;;;5050814;28;20298;-69
2023/12/27 00:28:32;;;;;;;0.00;0.00;;;7.80;99.90;;;;;;5051287;28;20177;-69
2023/12/27 00:30:57;;;;;;;0.00;0.00;;;7.70;99.90;;;;;;5051123;28;20177;-69
2023/12/27 00:33:23;;;;;;;0.00;0.00;;;7.70;99.90;;;;;;5051349;28;20188;-69
2023/12/27 00:35:48;;;;;;;0.00;0.00;;;7.70;99.90;;;;;;5050868;28;20671;-68
2023/12/27 00:38:14;;;;;;;0.00;0.00;;;7.80;99.90;;;;;;5051312;28;20224;-68
2023/12/27 00:40:39;;;;;;;0.00;0.00;;;7.70;99.90;;;;;;5050392;28;20221;-68
2023/12/27 00:43:05;;;;;;;0.00;0.00;;;7.70;99.90;;;;;;5049835;28;20252;-69
2023/12/27 00:45:31;;;;;;;0.00;0.00;;;7.70;99.90;;;;;;5050775;28;20213;-68
2023/12/27 00:47:56;;;;;;;0.00;0.00;;;7.80;99.90;;;;;;5050564;28;20239;-68
2023/12/27 00:50:21;;;;;;;0.00;0.00;;;7.80;99.90;;;;;;5051068;28;20220;-68
2023/12/27 00:52:47;;;;;;;0.00;0.00;;;7.80;99.90;;;;;;5050620;28;20205;-68
2023/12/27 00:55:13;;;;;;;1.35;0.80;;;7.80;99.90;;;;;;5046179;28;20181;-69
2023/12/27 00:57:38;;;;;;;0.00;0.00;;;7.80;99.90;;;;;;5048975;28;20199;-69
2023/12/27 01:00:04;;;;;;;0.13;0.13;;;7.80;99.90;;;;;;5050879;28;20655;-68
2023/12/27 01:02:30;;;;;;;0.00;0.00;;;7.80;99.90;;;;;;5050533;28;20188;-68
2023/12/27 01:04:56;;;;;;;0.00;0.00;;;7.80;99.90;;;;;;5050827;28;20264;-68
2023/12/27 01:07:22;;;;;;;0.03;0.03;;;7.80;99.90;;;;;;5050472;28;20285;-69
2023/12/27 01:09:48;;;;;;;0.00;0.00;;;7.80;99.90;;;;;;5050682;28;20180;-69
2023/12/27 01:12:14;;;;;;;0.00;0.00;;;7.80;99.90;;;;;;5050439;28;20547;-68
2023/12/27 01:14:40;;;;;;;0.00;0.00;;;7.80;99.90;;;;;;5049465;28;20239;-68
2023/12/27 01:17:06;;;;;;;0.00;0.00;;;7.80;99.90;;;;;;5050501;28;20177;-69
2023/12/27 01:19:31;;;;;;;0.00;0.00;;;7.80;99.90;;;;;;5050589;28;20319;-68
2023/12/27 01:21:57;;;;;;;0.00;0.00;;;7.80;99.90;;;;;;5050515;28;20182;-69
2023/12/27 01:24:23;;;;;;;0.05;0.00;;;7.80;99.90;;;;;;5050673;28;20178;-69
2023/12/27 01:26:48;;;;;;;0.00;0.00;;;7.80;99.90;;;;;;5050111;28;20215;-68
2023/12/27 01:29:14;;;;;;;0.00;0.00;;;7.80;99.90;;;;;;5050693;28;20184;-68
2023/12/27 01:31:39;;;;;;;0.00;0.00;;;7.90;99.90;;;;;;5050496;28;20209;-68
2023/12/27 01:34:05;;;;;;;0.00;0.00;;;7.80;99.90;;;;;;5049293;28;20181;-68
2023/12/27 01:36:31;;;;;;;0.00;0.00;;;7.80;99.90;;;;;;5032347;28;20182;-68
2023/12/27 01:38:56;;;;;;;0.00;0.00;;;7.80;99.90;;;;;;5054244;28;20217;-68
2023/12/27 01:41:22;;;;;;;0.00;0.00;;;7.80;99.90;;;;;;5054064;28;20242;-68
2023/12/27 01:43:47;;;;;;;0.00;0.00;;;7.80;99.90;;;;;;5054190;28;20523;-68
2023/12/27 01:46:13;;;;;;;0.00;0.00;;;7.80;99.90;;;;;;5053790;28;20706;-68
2023/12/27 01:48:40;;;;;;;0.00;0.00;;;7.80;99.90;;;;;;5054067;28;20189;-68
2023/12/27 01:51:06;;;;;;;0.00;0.00;;;7.80;99.90;;;;;;5054143;28;20181;-68
2023/12/27 01:53:32;;;;;;;0.00;0.00;;;7.80;99.90;;;;;;5054175;28;20196;-67
2023/12/27 01:55:57;;;;;;;0.00;0.00;;;7.70;99.90;;;;;;5053745;28;20197;-67
2023/12/27 01:58:23;;;;;;;0.00;0.00;;;7.70;99.90;;;;;;5054221;28;20178;-67
2023/12/27 02:00:49;;;;;;;0.00;0.00;;;7.60;99.90;;;;;;5053832;28;20194;-68
2023/12/27 02:03:15;;;;;;;0.00;0.00;;;7.60;99.90;;;;;;5053908;28;20177;-68
2023/12/27 02:05:41;;;;;;;0.00;0.00;;;7.60;99.90;;;;;;5053914;28;20197;-67
2023/12/27 02:08:11;;;;;;;0.00;0.00;;;7.50;99.90;;;;;;5054144;28;20181;-68
2023/12/27 02:10:37;;;;;;;0.00;0.00;;;7.50;99.90;;;;;;5053710;28;20177;-68
2023/12/27 02:13:06;;;;;;;0.00;0.00;;;7.50;99.90;;;;;;5053955;28;20257;-68
2023/12/27 02:15:32;;;;;;;0.00;0.00;;;7.50;99.90;;;;;;5053806;28;20185;-68
2023/12/27 02:18:00;;;;;;;0.00;0.00;;;7.50;99.90;;;;;;5053730;28;20220;-68
2023/12/27 02:20:26;;;;;;;0.00;0.00;;;7.50;99.90;;;;;;5065146;28;20213;-67
2023/12/27 02:22:54;;;;;;;0.00;0.00;;;7.50;99.90;;;;;;5073733;28;20208;-67
2023/12/27 02:25:20;;;;;;;0.00;0.00;;;7.50;99.90;;;;;;5074018;28;20189;-67
2023/12/27 02:27:46;;;;;;;0.00;0.00;;;7.50;99.90;;;;;;5064970;28;20541;-67
2023/12/27 02:30:19;;;;;;;0.00;0.00;;;7.50;99.90;;;;;;5036980;28;20189;-67
2023/12/27 02:32:51;;;;;;;0.10;0.10;;;7.50;99.90;;;;;;5053572;28;20231;-67
2023/12/27 02:35:18;;;;;;;0.00;0.00;;;7.40;99.90;;;;;;5053598;28;20790;-67
2023/12/27 02:37:43;;;;;;;0.00;0.00;;;7.40;99.90;;;;;;5053540;28;20180;-67
2023/12/27 02:40:09;;;;;;;0.00;0.00;;;7.40;99.90;;;;;;5053102;28;20233;-66
2023/12/27 02:42:37;;;;;;;0.00;0.00;;;7.40;99.90;;;;;;5052911;28;20216;-67
2023/12/27 02:45:03;;;;;;;0.00;0.00;;;7.40;99.90;;;;;;5052779;28;20186;-67
2023/12/27 02:47:28;;;;;;;0.10;0.10;;;7.40;99.90;;;;;;5051997;28;20266;-67
2023/12/27 02:49:54;;;;;;;0.00;0.00;;;7.50;99.90;;;;;;5059508;28;20652;-67
2023/12/27 02:52:19;;;;;;;0.00;0.00;;;7.50;99.90;;;;;;5055756;28;20591;-67
2023/12/27 02:54:45;;;;;;;0.00;0.00;;;7.50;99.90;;;;;;5052956;28;20181;-67
2023/12/27 02:57:10;;;;;;;0.00;0.00;;;7.50;99.90;;;;;;5052549;28;20660;-67
2023/12/27 02:59:36;;;;;;;0.00;0.00;;;7.50;99.90;;;;;;5053128;28;20196;-67
2023/12/27 03:02:01;;;;;;;0.00;0.00;;;7.50;99.90;;;;;;5051384;28;20564;-68
2023/12/27 03:04:27;;;;;;;0.00;0.00;;;7.50;99.90;;;;;;5053099;28;20215;-68
2023/12/27 03:06:52;;;;;;;0.25;0.25;;;7.60;99.90;;;;;;5052706;28;20572;-68
2023/12/27 03:09:18;;;;;;;0.00;0.00;;;7.60;99.90;;;;;;5053048;28;20193;-68
2023/12/27 03:11:43;;;;;;;0.00;0.00;;;7.60;99.90;;;;;;5052620;28;20197;-67
2023/12/27 03:14:09;;;;;;;0.00;0.00;;;7.60;99.90;;;;;;5052492;28;20209;-68
2023/12/27 03:16:34;;;;;;;0.00;0.00;;;7.60;99.90;;;;;;5052335;28;20173;-67
2023/12/27 03:19:00;;;;;;;0.00;0.00;;;7.60;99.90;;;;;;5051371;28;20276;-66
2023/12/27 03:21:26;;;;;;;0.32;0.32;;;7.60;99.90;;;;;;5059974;28;20178;-67
2023/12/27 03:23:52;;;;;;;0.00;0.00;;;7.60;99.90;;;;;;5052321;28;20314;-68
2023/12/27 03:26:17;;;;;;;0.00;0.00;;;7.60;99.90;;;;;;5052068;28;20201;-68
2023/12/27 03:28:43;;;;;;;0.20;0.20;;;7.60;99.90;;;;;;5051914;28;20188;-67
2023/12/27 03:31:08;;;;;;;0.00;0.00;;;7.60;99.90;;;;;;5052257;28;20810;-67
2023/12/27 03:33:34;;;;;;;0.00;0.00;;;7.70;99.90;;;;;;5050982;28;20276;-67
2023/12/27 03:36:00;;;;;;;0.00;0.00;;;7.70;99.90;;;;;;5052405;28;20412;-68
2023/12/27 03:38:25;;;;;;;0.00;0.00;;;7.70;99.90;;;;;;5052318;28;20177;-67
2023/12/27 03:40:51;;;;;;;0.10;0.10;;;7.70;99.90;;;;;;5051844;28;20184;-67
2023/12/27 03:43:16;;;;;;;0.00;0.00;;;7.70;99.90;;;;;;5051985;28;20186;-67
2023/12/27 03:45:42;;;;;;;0.00;0.00;;;7.70;99.90;;;;;;5051318;28;20197;-67
2023/12/27 03:48:08;;;;;;;0.00;0.00;;;7.70;99.90;;;;;;5051950;28;20331;-65
2023/12/27 03:50:34;;;;;;;0.00;0.00;;;7.70;99.90;;;;;;5062840;28;20212;-67
2023/12/27 03:52:59;;;;;;;0.00;0.00;;;7.70;99.90;;;;;;5051923;28;20212;-67
2023/12/27 03:55:25;;;;;;;0.00;0.00;;;7.80;99.90;;;;;;5051649;28;20193;-68
2023/12/27 03:57:51;;;;;;;0.00;0.00;;;7.80;99.90;;;;;;5051392;28;20184;-67
2023/12/27 04:00:17;;;;;;;0.00;0.00;;;7.80;99.90;;;;;;5051552;28;20182;-68
2023/12/27 04:02:43;;;;;;;0.00;0.00;;;7.80;99.90;;;;;;5051511;28;20189;-67
2023/12/27 04:05:09;;;;;;;0.20;0.20;;;7.80;99.90;;;;;;5051509;28;20178;-68
2023/12/27 04:07:34;;;;;;;0.00;0.00;;;7.80;99.90;;;;;;5051724;28;20213;-68
2023/12/27 04:10:00;;;;;;;0.10;0.10;;;7.80;99.90;;;;;;5051265;28;20185;-67
2023/12/27 04:12:26;;;;;;;0.00;0.00;;;7.80;99.90;;;;;;5051495;28;20178;-68
2023/12/27 04:14:51;;;;;;;0.00;0.00;;;7.80;99.90;;;;;;5049940;28;20256;-68
2023/12/27 04:17:17;;;;;;;0.00;0.00;;;7.80;99.90;;;;;;5051578;28;20185;-68
2023/12/27 04:19:42;;;;;;;0.00;0.00;;;7.80;99.90;;;;;;5056879;28;20230;-67
2023/12/27 04:22:08;;;;;;;0.00;0.00;;;7.80;99.90;;;;;;5071496;28;20703;-68
2023/12/27 04:24:34;;;;;;;0.10;0.10;;;7.80;99.90;;;;;;5071501;28;20217;-68
2023/12/27 04:26:59;;;;;;;0.00;0.00;;;7.80;99.90;;;;;;5071400;28;20672;-68
2023/12/27 04:29:25;;;;;;;0.00;0.00;;;7.80;99.90;;;;;;5071543;28;20173;-68
2023/12/27 04:31:50;;;;;;;0.00;0.00;;;7.80;99.90;;;;;;5061550;28;20587;-68
2023/12/27 04:34:16;;;;;;;0.00;0.00;;;7.80;99.90;;;;;;5051479;28;20181;-67
2023/12/27 04:36:42;;;;;;;0.00;0.00;;;7.80;99.90;;;;;;5051433;28;20176;-67
2023/12/27 04:39:07;;;;;;;0.00;0.00;;;7.80;99.90;;;;;;5051099;28;20274;-68
2023/12/27 04:41:33;;;;;;;0.00;0.00;;;7.80;99.90;;;;;;5051285;28;20688;-68
2023/12/27 04:43:59;;;;;;;0.00;0.00;;;7.80;99.90;;;;;;5050938;28;20181;-68
2023/12/27 04:46:24;;;;;;;0.00;0.00;;;7.80;99.90;;;;;;5050258;28;20214;-68
2023/12/27 04:48:50;;;;;;;0.00;0.00;;;7.80;99.90;;;;;;5049347;28;20177;-68
2023/12/27 04:51:15;;;;;;;0.00;0.00;;;7.80;99.90;;;;;;5069404;28;20655;-68
2023/12/27 04:53:41;;;;;;;1.25;0.20;;;7.80;99.90;;;;;;5051052;28;20182;-67
2023/12/27 04:56:07;;;;;;;0.00;0.00;;;7.80;99.90;;;;;;5046415;28;20193;-68
2023/12/27 04:58:38;;;;;;;0.00;0.00;;;7.80;99.90;;;;;;5050836;28;20193;-68
2023/12/27 05:01:05;;;;;;;0.00;0.00;;;7.80;99.90;;;;;;5050672;28;20628;-67
2023/12/27 05:03:35;;;;;;;0.00;0.00;;;7.80;99.90;;;;;;5050691;28;20177;-68
2023/12/27 05:06:09;;;;;;;0.00;0.00;;;7.80;99.90;;;;;;5050491;28;20205;-67
2023/12/27 05:08:37;;;;;;;0.00;0.00;;;7.80;99.90;;;;;;5050850;28;20243;-68
2023/12/27 05:11:13;;;;;;;0.00;0.00;;;7.80;99.90;;;;;;5048612;28;20408;-68
2023/12/27 05:13:39;;;;;;;0.00;0.00;;;7.90;99.90;;;;;;5050424;28;20250;-68
2023/12/27 05:16:09;;;;;;;0.00;0.00;;;7.80;99.90;;;;;;5049344;28;20250;-69
2023/12/27 05:18:35;;;;;;;0.00;0.00;;;7.80;99.90;;;;;;5049190;28;20670;-66
2023/12/27 05:21:01;;;;;;;0.00;0.00;;;7.80;99.90;;;;;;5055551;28;20181;-68
2023/12/27 05:23:26;;;;;;;0.00;0.00;;;7.80;99.90;;;;;;5050597;28;20181;-67
2023/12/27 05:25:52;;;;;;;0.00;0.00;;;7.80;99.90;;;;;;5050579;28;20261;-67
2023/12/27 05:28:17;;;;;;;0.00;0.00;;;7.80;99.90;;;;;;5050052;28;20280;-67
2023/12/27 05:30:43;;;;;;;0.00;0.00;;;7.80;99.90;;;;;;5050829;28;20178;-67
2023/12/27 05:33:08;;;;;;;0.00;0.00;;;7.80;99.90;;;;;;5050223;28;20170;-67
2023/12/27 05:35:34;;;;;;;0.00;0.00;;;7.80;99.90;;;;;;5050612;28;20178;-68
2023/12/27 05:37:59;;;;;;;0.00;0.00;;;7.80;99.90;;;;;;5051299;28;20280;-67
2023/12/27 05:40:25;;;;;;;0.00;0.00;;;7.80;99.90;;;;;;5051001;28;20223;-68
2023/12/27 05:42:50;;;;;;;0.00;0.00;;;7.80;99.90;;;;;;5051572;28;20189;-68
2023/12/27 05:45:16;;;;;;;0.00;0.00;;;7.80;99.90;;;;;;5051586;28;20177;-67
2023/12/27 05:47:41;;;;;;;0.00;0.00;;;7.80;99.90;;;;;;5050276;28;20880;-67
2023/12/27 05:50:09;;;;;;;0.20;0.20;;;7.80;99.90;;;;;;5058041;28;20181;-67
2023/12/27 05:52:35;;;;;;;0.00;0.00;;;7.80;99.90;;;;;;5061692;28;20268;-67
2023/12/27 05:55:00;;;;;;;0.17;0.17;;;7.80;99.90;;;;;;5048606;28;20264;-68
2023/12/27 05:57:26;;;;;;;0.28;0.28;;;7.90;99.90;;;;;;5046690;28;20185;-67
2023/12/27 05:59:51;;;;;;;0.00;0.00;;;7.90;99.90;;;;;;5049758;28;20200;-67
2023/12/27 06:02:17;;;;;;;0.00;0.00;;;7.90;99.90;;;;;;5048721;28;20174;-67
2023/12/27 06:04:42;;;;;;;0.00;0.00;;;7.90;99.90;;;;;;5048956;28;20189;-67
2023/12/27 06:07:08;;;;;;;0.00;0.00;;;7.90;99.90;;;;;;5050097;28;20209;-67
2023/12/27 06:09:34;;;;;;;0.10;0.10;;;7.90;99.90;;;;;;5050193;28;20182;-68
2023/12/27 06:11:59;;;;;;;0.00;0.00;;;7.90;99.90;;;;;;5049555;28;20178;-67
2023/12/27 06:14:25;;;;;;;0.00;0.00;;;7.90;99.90;;;;;;5050353;28;20177;-68
2023/12/27 06:16:50;;;;;;;0.00;0.00;;;7.80;99.90;;;;;;5049763;28;20235;-67
2023/12/27 06:19:16;;;;;;;0.00;0.00;;;7.90;99.90;;;;;;5051722;28;20685;-67
2023/12/27 06:21:41;;;;;;;0.00;0.00;;;7.80;99.90;;;;;;5049770;28;20182;-66
2023/12/27 06:24:07;;;;;;;0.00;0.00;;;7.80;99.90;;;;;;5053396;28;20655;-67
2023/12/27 06:26:33;;;;;;;0.00;0.00;;;7.90;99.90;;;;;;5053763;28;20220;-67
2023/12/27 06:28:59;;;;;;;0.00;0.00;;;7.90;99.90;;;;;;5053250;28;20248;-67
2023/12/27 06:31:24;;;;;;;0.00;0.00;;;7.90;99.90;;;;;;5052896;28;20185;-66
2023/12/27 06:33:49;;;;;;;0.00;0.00;;;7.90;99.90;;;;;;5043090;28;20165;-67
2023/12/27 06:36:15;;;;;;;0.00;0.00;;;7.90;99.90;;;;;;5053474;28;20185;-68
2023/12/27 06:38:40;;;;;;;0.00;0.00;;;7.90;99.90;;;;;;5052764;28;20774;-66
2023/12/27 06:41:07;;;;;;;0.00;0.00;;;7.90;99.90;;;;;;5052308;28;20186;-68
2023/12/27 06:43:33;;;;;;;0.00;0.00;;;7.90;99.90;;;;;;5053304;28;20276;-68
2023/12/27 06:45:58;;;;;;;0.00;0.00;;;7.90;99.90;;;;;;5051400;28;20240;-67
2023/12/27 06:48:24;;;;;;;0.00;0.00;;;7.90;99.90;;;;;;5052367;28;20653;-71
2023/12/27 06:50:49;;;;;;;0.00;0.00;;;7.90;99.90;;;;;;5052671;28;20181;-73
2023/12/27 06:53:15;;;;;;;0.00;0.00;;;7.80;99.90;;;;;;5031840;28;20185;-65
2023/12/27 06:55:40;;;;;;;0.00;0.00;;;7.80;99.90;;;;;;5044382;28;20198;-67
2023/12/27 06:58:06;;;;;;;0.00;0.00;;;7.80;99.90;;;;;;5052677;28;20247;-66
2023/12/27 07:00:31;;;;;;;0.00;0.00;;;7.80;99.90;;;;;;5051939;28;20635;-71
2023/12/27 07:02:59;;;;;;;0.00;0.00;;;7.80;99.90;;;;;;5052886;28;20174;-72
2023/12/27 07:05:24;;;;;;;0.00;0.00;;;7.80;99.90;;;;;;5052817;28;20181;-71
2023/12/27 07:07:50;;;;;;;0.00;0.00;;;7.80;99.90;;;;;;5052554;28;20589;-68
2023/12/27 07:10:15;;;;;;;0.00;0.00;;;7.80;99.90;;;;;;5053190;28;20174;-72
2023/12/27 07:12:41;;;;;;;0.00;0.00;;;7.70;99.90;;;;;;5052801;28;20196;-65
2023/12/27 07:15:11;;;;;;;0.00;0.00;;;7.70;99.90;;;;;;5051518;28;20440;-65
2023/12/27 07:17:36;;;;;;;0.00;0.00;;;7.80;99.90;;;;;;5052713;28;20270;-71
2023/12/27 07:20:02;;;;;;;0.00;0.00;;;7.80;99.90;;;;;;5050675;28;20692;-69
2023/12/27 07:22:28;;;;;;;0.00;0.00;;;7.80;99.90;;;;;;5052352;28;20220;-71
2023/12/27 07:24:53;;;;;;;0.00;0.00;;;7.80;99.90;;;;;;5052094;28;20181;-71
2023/12/27 07:27:19;;;;;;;0.00;0.00;;;7.80;99.90;;;;;;5052516;28;20220;-70
2023/12/27 07:29:44;;;;;;;0.00;0.00;;;7.80;99.90;;;;;;5052017;28;20186;-70
2023/12/27 07:32:10;;;;;;;0.00;0.00;;;7.70;99.90;;;;;;5050281;28;20628;-68
2023/12/27 07:34:35;;;;;;;0.00;0.00;;;7.70;99.90;;;;;;5051530;28;20182;-68
2023/12/27 07:37:01;;;;;;;0.00;0.00;;;7.70;99.90;;;;;;5052259;28;20212;-71
2023/12/27 07:39:26;;;;;;;0.00;0.00;;;7.70;99.90;;;;;;5051977;28;21097;-70
2023/12/27 07:41:52;;;;;;;0.00;0.00;;;7.70;99.90;;;;;;5052194;28;20619;-79
2023/12/27 07:44:18;;;;;;;0.00;0.00;;;7.70;99.90;;;;;;5051883;28;20232;-72
2023/12/27 07:46:45;;;;;;;0.00;0.00;;;7.70;99.90;;;;;;5051857;28;20267;-73
2023/12/27 07:49:10;;;;;;;0.00;0.00;;;7.70;99.90;;;;;;5051711;28;20584;-73
2023/12/27 07:51:36;;;;;;;0.00;0.00;;;7.70;99.90;;;;;;5052042;28;20633;-71
2023/12/27 07:54:02;;;;;;;0.00;0.00;;;7.70;99.90;;;;;;5050854;28;20189;-74
2023/12/27 07:56:28;;;;;;;0.00;0.00;;;7.70;99.90;;;;;;5046429;28;20192;-74
2023/12/27 07:58:54;;;;;;;0.00;0.00;;;7.70;99.90;;;;;;5051217;28;20208;-71
2023/12/27 08:01:20;;;;;;;0.00;0.00;;;7.70;99.90;;;;;;5051962;28;20212;-73
2023/12/27 08:03:46;;;;;;;0.00;0.00;;;7.80;99.90;;;;;;5050399;28;20217;-71
2023/12/27 08:06:12;;;;;;;0.00;0.00;;;7.80;99.90;;;;;;5049344;28;20731;-72
2023/12/27 08:08:37;;;;;;;0.00;0.00;;;7.80;99.90;;;;;;5051305;28;20177;-71
2023/12/27 08:11:06;;;;;;;0.00;0.00;;;7.80;99.90;;;;;;5050648;28;20217;-70
2023/12/27 08:13:33;;;;;;;0.65;0.65;;;7.80;99.90;;;;;;5035832;28;20687;-65
2023/12/27 08:15:58;;;;;;;0.00;0.00;;;7.80;99.90;;;;;;5051319;28;20201;-67
2023/12/27 08:18:24;;;;;;;0.00;0.00;;;7.90;99.90;;;;;;5051472;28;20209;-68
2023/12/27 08:20:49;;;;;;;0.00;0.00;;;7.90;99.90;;;;;;5051706;28;20177;-66
2023/12/27 08:23:18;;;;;;;0.00;0.00;;;7.90;99.90;;;;;;5051326;28;20254;-65
2023/12/27 08:25:44;;;;;;;0.03;0.03;;;7.90;99.90;;;;;;5039623;28;20585;-65
2023/12/27 08:28:10;;;;;;;0.00;0.00;;;7.90;99.90;;;;;;5051525;28;20177;-66
2023/12/27 08:30:36;;;;;;;0.65;0.45;;;7.90;99.90;;;;;;5051286;28;20253;-66
2023/12/27 08:33:06;;;;;;;0.00;0.00;;;7.90;99.90;;;;;;5051251;28;20277;-66
2023/12/27 08:35:33;;;;;;;0.00;0.00;;;7.90;99.90;;;;;;5051820;28;20651;-65
2023/12/27 08:37:58;;;;;;;0.03;0.03;;;7.90;99.90;;;;;;5051703;28;20668;-66
2023/12/27 08:40:25;;;;;;;0.05;0.05;;;8.00;99.90;;;;;;5050405;28;20230;-66
2023/12/27 08:42:50;;;;;;;0.00;0.00;;;8.00;99.90;;;;;;5051684;28;20592;-66
2023/12/27 08:45:16;;;;;;;0.00;0.00;;;8.10;99.90;;;;;;5051403;28;20174;-65
2023/12/27 08:47:43;;;;;;;0.00;0.00;;;8.10;99.90;;;;;;5050961;28;20266;-66
2023/12/27 08:50:09;;;;;;;0.00;0.00;;;8.20;99.90;;;;;;5051679;28;20492;-65
2023/12/27 08:52:35;;;;;;;0.00;0.00;;;8.30;99.90;;;;;;5051664;28;20512;-66
2023/12/27 08:55:02;;;;;;;0.00;0.00;;;8.40;99.90;;;;;;5051466;28;20178;-66
2023/12/27 08:57:27;;;;;;;0.00;0.00;;;8.40;99.90;;;;;;5051572;28;20169;-65
2023/12/27 08:59:53;;;;;;;0.00;0.00;;;8.50;99.90;;;;;;5051541;28;20184;-66
2023/12/27 09:02:18;;;;;;;0.00;0.00;;;8.60;99.90;;;;;;5051487;28;20268;-65
2023/12/27 09:04:44;;;;;;;0.00;0.00;;;8.60;99.90;;;;;;5051505;28;20184;-66
2023/12/27 09:07:09;;;;;;;0.00;0.00;;;8.70;99.90;;;;;;5051395;28;20256;-66
2023/12/27 09:09:35;;;;;;;0.00;0.00;;;8.90;99.90;;;;;;5051365;28;20201;-65
2023/12/27 09:12:01;;;;;;;0.00;0.00;;;9.00;99.90;;;;;;5051153;28;20239;-65
2023/12/27 09:14:27;;;;;;;0.00;0.00;;;9.10;99.90;;;;;;5051435;28;20177;-65
2023/12/27 09:16:52;;;;;;;0.00;0.00;;;9.10;99.90;;;;;;5051278;28;20185;-65
2023/12/27 09:19:18;;;;;;;0.00;0.00;;;9.10;99.90;;;;;;5051500;28;20182;-66
2023/12/27 09:21:45;;;;;;;0.00;0.00;;;9.10;99.90;;;;;;5051346;28;20703;-65
2023/12/27 09:24:11;;;;;;;0.00;0.00;;;9.20;99.90;;;;;;5051244;28;20276;-66
2023/12/27 09:26:36;;;;;;;0.00;0.00;;;9.20;99.90;;;;;;5051198;28;20775;-66
2023/12/27 09:29:02;;;;;;;0.00;0.00;;;9.40;99.90;;;;;;5050990;28;20182;-66
2023/12/27 09:31:30;;;;;;;0.00;0.00;;;9.50;99.90;;;;;;5051229;28;20197;-65
2023/12/27 09:33:56;;;;;;;0.00;0.00;;;9.70;99.90;;;;;;5049938;28;20166;-65
2023/12/27 09:36:22;;;;;;;0.00;0.00;;;9.70;99.90;;;;;;5051120;28;20272;-65
2023/12/27 09:38:47;;;;;;;0.00;0.00;;;9.80;99.90;;;;;;5050924;28;20308;-66
2023/12/27 09:41:14;;;;;;;0.17;0.17;;;9.80;99.90;;;;;;5049835;28;20268;-65
2023/12/27 09:43:42;;;;;;;0.00;0.00;;;9.90;99.90;;;;;;5051077;28;20227;-65
2023/12/27 09:46:09;;;;;;;0.00;0.00;;;10.00;99.90;;;;;;5050800;28;20301;-65
2023/12/27 09:48:36;;;;;;;0.00;0.00;;;10.10;99.90;;;;;;5049751;28;20260;-65
2023/12/27 09:51:04;;;;;;;0.00;0.00;;;10.30;99.90;;;;;;5050806;28;20227;-65
2023/12/27 09:53:29;;;;;;;0.00;0.00;;;10.30;99.90;;;;;;5051044;28;20265;-65
2023/12/27 09:55:56;;;;;;;0.00;0.00;;;10.40;99.90;;;;;;5050891;28;20264;-65
2023/12/27 09:58:26;;;;;;;0.00;0.00;;;10.40;99.90;;;;;;5053366;28;20170;-66
2023/12/27 10:00:52;;;;;;;0.00;0.00;;;10.50;99.90;;;;;;5054673;28;20174;-66
2023/12/27 10:03:31;;;;;;;0.00;0.00;;;10.50;99.90;;;;;;5054647;28;20264;-65
2023/12/27 10:06:08;;;;;;;0.00;0.00;;;10.70;99.90;;;;;;5054503;28;20296;-65
2023/12/27 10:08:34;;;;;;;0.00;0.00;;;10.70;99.90;;;;;;5054718;28;20170;-65
2023/12/27 10:11:02;;;;;;;0.00;0.00;;;10.80;99.90;;;;;;5054363;28;20649;-65
2023/12/27 10:13:29;;;;;;;0.00;0.00;;;10.90;99.90;;;;;;5054625;28;20194;-65
2023/12/27 10:15:54;;;;;;;0.00;0.00;;;10.90;99.90;;;;;;5054394;28;20263;-65
2023/12/27 10:18:20;;;;;;;0.00;0.00;;;10.90;99.90;;;;;;5054662;28;20236;-65
2023/12/27 10:20:48;;;;;;;0.00;0.00;;;10.70;99.90;;;;;;5054317;28;20170;-65
2023/12/27 10:23:13;;;;;;;0.00;0.00;;;10.70;99.90;;;;;;5054437;28;20534;-65
2023/12/27 10:25:40;;;;;;;0.03;0.03;;;10.70;99.90;;;;;;5054135;28;20169;-65
2023/12/27 10:28:05;;;;;;;0.00;0.00;;;10.60;99.90;;;;;;5054233;28;20247;-66
2023/12/27 10:30:31;;;;;;;0.00;0.00;;;10.50;99.90;;;;;;5054226;28;20640;-66
2023/12/27 10:33:02;;;;;;;0.00;0.00;;;10.50;99.90;;;;;;5054011;28;20235;-66
2023/12/27 10:35:28;;;;;;;0.00;0.00;;;10.50;99.90;;;;;;5054155;28;20176;-65
2023/12/27 10:38:07;;;;;;;0.00;0.00;;;10.60;99.90;;;;;;5054035;28;20178;-65
2023/12/27 10:40:36;;;;;;;0.00;0.00;;;10.70;99.90;;;;;;5053987;28;20637;-66
2023/12/27 10:43:02;;;;;;;0.15;0.15;;;10.90;99.90;;;;;;5053857;28;20204;-65
2023/12/27 10:45:28;;;;;;;0.00;0.00;;;10.90;99.90;;;;;;5052858;28;20235;-65
2023/12/27 10:48:01;;;;;;;0.00;0.00;;;11.00;99.90;;;;;;5053773;28;20217;-66
2023/12/27 10:50:28;;;;;;;0.00;0.00;;;11.00;99.90;;;;;;5053943;28;20197;-65
2023/12/27 10:53:06;;;;;;;0.00;0.00;;;11.00;99.90;;;;;;5036058;28;20181;-65
2023/12/27 10:55:32;;;;;;;0.00;0.00;;;10.90;99.90;;;;;;5053933;28;20568;-66
2023/12/27 10:58:00;;;;;;;0.00;0.00;;;10.90;99.90;;;;;;5053577;28;20178;-65
2023/12/27 11:00:26;;;;;;;0.00;0.00;;;10.90;99.90;;;;;;5053611;28;20174;-65
2023/12/27 11:02:53;;;;;;;0.00;0.00;;;10.90;99.90;;;;;;5052241;28;20592;-66
2023/12/27 11:05:23;;;;;;;0.00;0.00;;;10.90;99.90;;;;;;5053294;28;20177;-65
2023/12/27 11:07:53;;;;;;;0.00;0.00;;;10.90;99.90;;;;;;5051966;28;20275;-66
2023/12/27 11:10:19;;;;;;;0.00;0.00;;;11.00;99.90;;;;;;5052241;28;20209;-66
2023/12/27 11:12:46;;;;;;;0.00;0.00;;;11.10;99.90;;;;;;5053343;28;20170;-66
2023/12/27 11:15:16;;;;;;;0.00;0.00;;;11.10;99.90;;;;;;5053429;28;20166;-66
2023/12/27 11:17:42;;;;;;;0.00;0.00;;;11.20;99.90;;;;;;5053266;28;20178;-65
2023/12/27 11:20:12;;;;;;;0.00;0.00;;;11.30;99.90;;;;;;5053286;28;20176;-66
2023/12/27 11:22:39;;;;;;;0.00;0.00;;;11.50;99.90;;;;;;5053257;28;20189;-66
2023/12/27 11:25:05;;;;;;;0.00;0.00;;;11.60;99.90;;;;;;5053191;28;20256;-66
2023/12/27 11:27:31;;;;;;;0.00;0.00;;;11.70;99.90;;;;;;5053054;28;20220;-66
2023/12/27 11:30:00;;;;;;;0.00;0.00;;;11.70;99.90;;;;;;5051773;28;20173;-66
2023/12/27 11:32:27;;;;;;;0.00;0.00;;;11.80;99.90;;;;;;5051716;28;20177;-66
2023/12/27 11:34:55;;;;;;;0.00;0.00;;;11.80;99.90;;;;;;5052896;28;20173;-66
2023/12/27 11:37:22;;;;;;;0.00;0.00;;;11.80;99.90;;;;;;5052796;28;20170;-66
2023/12/27 11:39:50;;;;;;;0.00;0.00;;;11.70;99.90;;;;;;5051403;28;20233;-66
2023/12/27 11:42:16;;;;;;;0.00;0.00;;;11.70;99.90;;;;;;5052906;28;20177;-66
2023/12/27 11:44:54;;;;;;;0.00;0.00;;;11.70;99.90;;;;;;5052713;28;20646;-66
2023/12/27 11:47:20;;;;;;;0.05;0.05;;;11.80;99.90;;;;;;5051291;28;20623;-66
2023/12/27 11:50:14;;;;;;;0.00;0.00;;;11.80;99.90;;;;;;5052707;28;20223;-66
2023/12/27 11:52:46;;;;;;;0.00;0.00;;;11.90;99.90;;;;;;5052509;28;20513;-66
2023/12/27 11:55:16;;;;;;;0.00;0.00;;;12.10;99.90;;;;;;5052683;28;20185;-66
2023/12/27 11:57:45;;;;;;;0.00;0.00;;;12.10;99.90;;;;;;5052404;28;20177;-66
2023/12/27 12:00:30;;;;;;;0.17;0.17;;;12.30;99.90;;;;;;5052557;28;20728;-66
2023/12/27 12:03:13;;;;;;;0.00;0.00;;;12.30;99.90;;;;;;5052479;28;20189;-66
2023/12/27 12:06:08;;;;;;;0.00;0.00;;;12.40;99.90;;;;;;5052282;28;20216;-66
2023/12/27 12:08:44;;;;;;;0.00;0.00;;;12.40;99.90;;;;;;5052478;28;20174;-66
2023/12/27 12:11:14;;;;;;;0.00;0.00;;;12.50;99.90;;;;;;5052388;28;20699;-66
2023/12/27 12:13:40;;;;;;;0.00;0.00;;;12.50;99.90;;;;;;5052207;28;20184;-66
2023/12/27 12:16:07;;;;;;;0.00;0.00;;;12.50;99.90;;;;;;5052255;28;20641;-65
2023/12/27 12:18:36;;;;;;;0.00;0.00;;;12.60;99.90;;;;;;5052151;28;20195;-66
2023/12/27 12:21:03;;;;;;;0.00;0.00;;;12.60;99.90;;;;;;5051768;28;20184;-66
2023/12/27 12:23:33;;;;;;;0.00;0.00;;;12.60;99.90;;;;;;5050822;28;20451;-66
2023/12/27 12:26:03;;;;;;;0.00;0.00;;;12.70;99.90;;;;;;5051839;28;20669;-66
2023/12/27 12:28:29;;;;;;;0.00;0.00;;;12.60;99.90;;;;;;5052306;28;20260;-66
2023/12/27 12:30:56;;;;;;;0.00;0.00;;;12.60;99.40;;;;;;5053687;28;20750;-66
2023/12/27 12:33:22;;;;;;;0.00;0.00;;;12.50;99.60;;;;;;5053403;28;20193;-66
2023/12/27 12:35:49;;;;;;;0.00;0.00;;;12.40;99.90;;;;;;5054459;28;20165;-65
2023/12/27 12:38:15;;;;;;;0.00;0.00;;;12.40;99.90;;;;;;5053911;28;20188;-66
2023/12/27 12:40:40;;;;;;;0.32;0.32;;;12.40;99.90;;;;;;5053974;28;20640;-66
2023/12/27 12:43:07;;;;;;;0.00;0.00;;;12.40;99.90;;;;;;5052882;28;20561;-65
2023/12/27 12:45:35;;;;;;;0.00;0.00;;;12.30;99.90;;;;;;5051826;28;20170;-66
2023/12/27 12:48:00;;;;;;;0.00;0.00;;;12.30;99.90;;;;;;5052263;28;20739;-66
2023/12/27 12:50:26;;;;;;;0.00;0.00;;;12.30;99.90;;;;;;5052926;28;20197;-65
2023/12/27 12:52:51;;;;;;;0.00;0.00;;;12.20;99.90;;;;;;5052485;28;20177;-65